aviador You're here:

KLBO Decoded Metar

in
Report Time2017-12-16 10:55:00
UTC Time2017-12-16 11:02:22
Flight Rules vfr VFR
Wind220° at 08 kt
W.Decomp.*RWY 18: 6.1 kt HW 5.1 kt RCW
W.Rank220° ranks 1
Current wind is above 220° avg. (6.1)
Visibility9999 m
Phenomena:N/A
Clouds:N/A
Expected CloudBase > 3,200 ft AGL from Temp-Dew spread
CeilingNone
Temp03°C
Dew Point-5°C (56% RH)
AAT-2.5°C
QNH1016 hPa
Raw Report
KLBO 161055Z AUTO 22008KT 10SM CLR 03/M05 A3000 RMK AO2=

Extra information for KLBO:More info

Social comments